Latest Weather Observations for Frankston

IDV60801

Issued at 3:05 pm EST Saturday 23 August 2014 (issued every 30 minutes, with the page automatically refreshed every 10 minutes)

About weather observations | Map of weather stations | Latest weather observations for VIC | Other Formats
Station Details ID: 086371 Name: FRANKSTON AWS Lat: -38.15 Lon: 145.12 Height: 6.0 m
Data from the previous 72 hours. | See also: Recent months at Frankston
Date/Time
EST
Temp
°C
App
Temp
°C
Dew
Point
Rel
Hum
%
Delta-T
°C
Wind Press
QNH
hPa
Press
MSL
hPa
Rain
since 9 am
mm
Dir
 
Spd
km/h
Gust
km/h
Spd
kts
Gust
kts
23/03:00pm 18.4 14.0 7.5 49 5.5 NNE 20 30 11 16 - - -
23/02:30pm 18.0 14.2 7.7 51 5.2 NNE 17 26 9 14 - - -
23/02:00pm 18.5 13.8 7.6 49 5.5 NNE 22 30 12 16 - - -
23/01:30pm 18.2 14.8 7.6 50 5.4 NNE 15 22 8 12 - - -
23/01:00pm 18.4 15.0 7.5 49 5.5 NNE 15 22 8 12 - - -
23/12:30pm 18.2 14.5 7.9 51 5.3 NNE 17 26 9 14 - - -
23/12:00pm 17.1 13.3 7.7 54 4.7 NNE 17 24 9 13 - - -
23/11:30am 17.3 13.5 7.6 53 4.9 NNE 17 24 9 13 - - -
23/11:00am 15.5 11.2 7.0 57 4.2 NNE 19 24 10 13 - - -
23/10:30am 15.4 10.1 6.9 57 4.2 NNE 24 32 13 17 - - -
23/10:00am 15.7 12.6 7.2 57 4.2 NE 13 24 7 13 - - -
23/09:30am 14.4 11.5 6.5 59 3.8 ENE 11 19 6 10 - - -
23/09:00am 13.2 11.1 6.5 64 3.2 ENE 7 13 4 7 - - -
23/08:30am 10.5 9.7 6.6 77 1.8 CALM 0 0 0 0 - - -
23/08:00am 10.5 9.5 5.5 71 2.3 CALM 0 0 0 0 - - -
23/07:30am 10.6 9.8 6.4 75 2.0 ESE 0 0 0 0 - - -
23/07:00am 9.2 8.1 5.2 76 1.8 CALM 0 2 0 1 - - -
23/06:30am 9.8 7.7 5.6 75 1.9 SE 6 7 3 4 - - -
23/06:00am 9.3 7.2 5.9 79 1.6 SE 6 7 3 4 - - -
23/05:30am 8.0 6.9 4.9 81 1.4 CALM 0 0 0 0 - - -
23/05:00am 8.6 7.1 5.2 79 1.5 SSE 2 2 1 1 - - -
23/04:30am 9.2 7.4 5.4 77 1.7 ESE 4 6 2 3 - - -
23/04:00am 9.9 8.4 6.6 80 1.5 ESE 4 7 2 4 - - -
23/03:30am 9.4 7.3 5.9 79 1.6 ESE 6 7 3 4 - - -
23/03:00am 9.1 6.9 5.5 78 1.6 ESE 6 7 3 4 - - -
23/02:30am 11.2 9.7 6.7 74 2.1 E 4 6 2 3 - - -
23/02:00am 10.1 7.9 6.4 78 1.7 ESE 7 9 4 5 - - -
23/01:30am 10.1 8.1 6.4 78 1.7 SE 6 7 3 4 - - -
23/01:00am 10.3 8.2 6.6 78 1.7 SE 7 9 4 5 - - -
23/12:30am 10.5 8.5 7.0 79 1.7 ESE 7 9 4 5 - - -
23/12:00am 10.8 8.0 7.1 78 1.8 ESE 11 13 6 7 - - -
 
Date/Time
EST
Temp
°C
App
Temp
°C
Dew
Point
Rel
Hum
%
Delta-T
°C
Wind Press
QNH
hPa
Press
MSL
hPa
Rain
since 9 am
mm
Dir
 
Spd
km/h
Gust
km/h
Spd
kts
Gust
kts
22/11:30pm 11.3 9.4 7.4 77 1.9 ESE 7 11 4 6 - - -
22/11:00pm 11.2 9.9 7.7 79 1.7 ESE 4 7 2 4 - - -
22/10:30pm 11.6 10.9 8.5 81 1.5 E 2 4 1 2 - - -
22/10:00pm 12.1 10.6 9.1 82 1.5 NE 7 13 4 7 - - -
22/09:30pm 13.0 11.1 9.1 77 2.0 ESE 9 15 5 8 - - -
22/09:00pm 13.2 11.6 8.7 74 2.3 ESE 7 11 4 6 - - -
22/08:30pm 13.5 11.9 8.6 72 2.5 SE 7 11 4 6 - - -
22/08:00pm 13.7 11.9 7.9 68 2.9 SE 7 19 4 10 - - -
22/07:30pm 13.9 11.9 7.0 63 3.4 SSE 7 15 4 8 - - -
22/07:00pm 14.4 12.5 7.7 64 3.3 SSE 7 13 4 7 - - -
22/06:30pm 14.7 12.9 8.0 64 3.3 SSE 7 13 4 7 - - -
22/06:00pm 15.5 13.5 7.0 57 4.2 SSE 7 13 4 7 - - -
22/05:30pm 16.8 14.7 5.7 48 5.4 SE 6 11 3 6 - - -
22/05:00pm 17.6 15.4 5.5 45 5.9 SE 6 11 3 6 - - -
22/04:30pm 18.0 15.4 5.9 45 5.9 SE 9 15 5 8 - - -
22/04:00pm 17.9 15.7 6.4 47 5.7 SE 7 13 4 7 - - -
22/03:30pm 17.4 14.9 3.7 40 6.4 WSW 6 7 3 4 - - -
22/03:00pm 16.3 13.5 5.0 47 5.4 WSW 9 9 5 5 - - -
22/02:30pm 16.8 14.5 4.8 45 5.7 WSW 6 6 3 3 - - -
22/02:00pm 16.1 13.8 4.8 47 5.3 WSW 6 7 3 4 - - -
22/01:30pm 16.1 14.3 5.4 49 5.1 WSW 4 4 2 2 - - -
22/01:00pm 15.8 14.2 6.3 53 4.6 WSW 4 4 2 2 - - -
22/12:30pm 15.5 14.6 6.2 54 4.5 CALM 0 0 0 0 - - -
22/12:00pm 15.0 14.3 7.1 59 3.9 CALM 0 0 0 0 - - -
22/11:30am 11.7 11.1 7.4 75 2.1 CALM 0 0 0 0 - - -
22/11:00am 11.4 10.7 7.1 75 2.1 CALM 0 0 0 0 - - -
22/10:30am 10.5 9.6 7.6 82 1.4 W 2 2 1 1 - - -
22/10:00am 10.2 9.2 7.4 83 1.3 WNW 2 4 1 2 - - -
22/09:30am 10.4 9.5 7.8 84 1.3 NNW 2 4 1 2 - - -
22/09:00am 10.4 8.7 7.6 83 1.3 N 6 7 3 4 - - -
22/08:30am 10.6 9.9 6.9 78 1.7 CALM 0 0 0 0 - - -
22/08:00am 10.6 10.0 7.5 81 1.5 CALM 0 0 0 0 - - -
22/07:30am 9.0 7.1 6.8 86 1.0 E 6 9 3 5 - - -
22/07:00am 8.0 6.0 6.3 89 0.8 ESE 6 7 3 4 - - -
22/06:30am 7.4 5.3 5.7 89 0.8 ESE 6 7 3 4 - - -
22/06:00am 7.5 4.8 5.8 89 0.8 SE 9 9 5 5 - - -
22/05:30am 7.6 5.0 5.9 89 0.8 SE 9 11 5 6 - - -
22/05:00am 8.0 5.3 5.8 86 1.0 SE 9 11 5 6 - - -
22/04:30am 8.2 6.2 6.3 88 0.9 SE 6 7 3 4 - - -
22/04:00am 7.6 6.2 5.7 88 0.9 SSE 2 4 1 2 - - -
22/03:30am 8.0 7.1 6.1 88 0.9 CALM 0 0 0 0 - - -
22/03:00am 8.5 7.7 6.5 87 0.9 CALM 0 4 0 2 - - -
22/02:30am 8.6 7.0 6.4 86 1.0 ESE 4 6 2 3 - - -
22/02:00am 9.2 7.3 6.6 84 1.2 SE 6 9 3 5 - - -
22/01:30am 9.8 6.7 7.2 84 1.2 SE 13 17 7 9 - - -
22/01:00am 9.7 6.9 7.0 83 1.3 SE 11 15 6 8 - - -
22/12:30am 9.9 7.2 7.2 83 1.3 SE 11 15 6 8 - - -
22/12:00am 10.2 7.5 7.3 82 1.4 SE 11 13 6 7 - - -
 
Date/Time
EST
Temp
°C
App
Temp
°C
Dew
Point
Rel
Hum
%
Delta-T
°C
Wind Press
QNH
hPa
Press
MSL
hPa
Rain
since 9 am
mm
Dir
 
Spd
km/h
Gust
km/h
Spd
kts
Gust
kts
21/11:30pm 10.3 7.6 7.4 82 1.4 ESE 11 15 6 8 - - -
21/11:00pm 10.6 7.9 7.5 81 1.5 ESE 11 13 6 7 - - -
21/10:30pm 10.9 8.6 7.4 79 1.7 ESE 9 15 5 8 - - -
21/10:00pm 11.3 9.0 7.6 78 1.8 ESE 9 15 5 8 - - -
21/09:30pm 11.7 9.0 7.4 75 2.1 E 11 17 6 9 - - -
21/09:00pm 12.0 9.7 7.3 73 2.3 E 9 17 5 9 - - -
21/08:30pm 12.6 9.5 7.3 70 2.6 E 13 24 7 13 - - -
21/08:00pm 13.0 10.2 7.0 67 2.9 E 11 17 6 9 - - -
21/07:30pm 13.3 11.0 7.5 68 2.8 E 9 17 5 9 - - -
21/07:00pm 13.6 11.4 7.8 68 2.9 ESE 9 19 5 10 - - -
21/06:30pm 14.0 12.2 7.8 66 3.1 E 7 15 4 8 - - -
21/06:00pm 14.4 12.2 7.7 64 3.3 E 9 17 5 9 - - -
21/05:30pm 14.9 12.7 7.9 63 3.5 E 9 17 5 9 - - -
21/05:00pm 15.5 13.0 8.0 61 3.8 E 11 19 6 10 - - -
21/04:30pm 16.0 13.9 8.2 60 3.9 E 9 19 5 10 - - -
21/04:00pm 16.1 14.0 8.1 59 4.0 E 9 15 5 8 - - -
21/03:30pm 15.9 13.3 7.9 59 4.0 E 11 19 6 10 - - -
21/03:00pm 16.2 14.4 7.9 58 4.2 E 7 15 4 8 - - -
21/02:30pm 15.7 14.0 7.5 58 4.1 ENE 6 11 3 6 - - -
21/02:00pm 14.9 13.8 8.4 65 3.3 NW 4 9 2 5 - - -
21/01:30pm 11.1 8.6 8.0 81 1.5 WSW 11 13 6 7 - - -
21/01:00pm 10.9 8.6 7.6 80 1.6 WSW 9 11 5 6 - - -
21/12:30pm 10.8 9.1 7.5 80 1.6 WSW 6 7 3 4 - - -
21/12:00pm 10.9 10.3 7.4 79 1.7 CALM 0 0 0 0 - - -
21/11:30am 10.8 9.7 6.9 77 1.8 WNW 2 4 1 2 - - -
21/11:00am 10.7 8.9 7.0 78 1.8 NNW 6 7 3 4 - - -
21/10:30am 10.5 8.4 6.5 76 1.9 N 7 9 4 5 - - -
21/10:00am 9.9 7.5 6.8 81 1.5 N 9 11 5 6 - - -
21/09:30am 10.5 8.6 6.5 76 1.9 N 6 9 3 5 - - -
21/09:00am 10.4 8.2 6.4 76 1.9 ENE 7 11 4 6 - - -
21/08:30am 9.4 6.8 5.9 79 1.6 E 9 13 5 7 - - -
21/08:00am 8.7 6.3 5.4 80 1.5 E 7 13 4 7 - - -
21/07:30am 7.9 5.4 4.7 80 1.4 ESE 7 11 4 6 - - -
21/07:00am 8.0 5.4 4.4 78 1.6 E 7 13 4 7 - - -
21/06:30am 7.9 5.4 4.5 79 1.5 ESE 7 13 4 7 - - -
21/06:00am 7.8 5.4 4.4 79 1.5 SE 6 11 3 6 - - -
21/05:30am 7.8 5.2 4.4 79 1.5 ESE 7 13 4 7 - - -
21/05:00am 7.8 5.5 4.9 82 1.3 ESE 6 9 3 5 - - -
21/04:30am 8.1 5.9 5.4 83 1.2 SE 6 11 3 6 - - -
21/04:00am 7.9 5.7 5.5 85 1.1 SSE 6 7 3 4 - - -
21/03:30am 7.9 6.2 5.7 86 1.0 SSE 4 7 2 4 - - -
21/03:00am 7.9 5.7 5.5 85 1.1 SSE 6 9 3 5 - - -
21/02:30am 8.0 5.8 5.5 84 1.1 SSE 6 9 3 5 - - -
21/02:00am 8.3 6.0 5.8 84 1.1 SSE 7 11 4 6 - - -
21/01:30am 8.3 6.2 5.8 84 1.1 SSE 6 11 3 6 - - -
21/01:00am 8.9 6.8 6.0 82 1.3 SSE 6 9 3 5 - - -
21/12:30am 9.1 7.2 6.5 84 1.2 SE 6 11 3 6 - - -
21/12:00am 8.1 6.5 6.4 89 0.8 SE 4 7 2 4 - - -
 
Date/Time
EST
Temp
°C
App
Temp
°C
Dew
Point
Rel
Hum
%
Delta-T
°C
Wind Press
QNH
hPa
Press
MSL
hPa
Rain
since 9 am
mm
Dir
 
Spd
km/h
Gust
km/h
Spd
kts
Gust
kts
20/11:30pm 7.6 5.5 5.7 88 0.9 E 6 7 3 4 - - -
20/11:00pm 8.0 6.2 5.5 84 1.1 E 4 6 2 3 - - -
20/10:30pm 8.5 6.4 5.6 82 1.3 SSE 6 9 3 5 - - -
20/10:00pm 8.8 6.7 5.9 82 1.3 SSE 6 9 3 5 - - -
20/09:30pm 8.8 6.5 5.7 81 1.4 SSE 7 11 4 6 - - -
20/09:00pm 8.9 6.6 5.6 80 1.5 S 7 9 4 5 - - -
20/08:30pm 9.2 6.8 5.4 77 1.7 S 7 11 4 6 - - -
20/08:00pm 9.4 7.0 5.2 75 1.9 S 7 11 4 6 - - -
20/07:30pm 9.5 7.2 4.9 73 2.1 S 6 9 3 5 - - -
20/07:00pm 10.3 8.0 4.9 69 2.4 S 6 9 3 5 - - -
20/06:30pm 10.7 8.4 4.8 67 2.7 S 6 7 3 4 - - -
20/06:00pm 11.1 9.2 5.0 66 2.8 SSW 4 7 2 4 - - -
20/05:30pm 11.4 8.0 6.1 70 2.5 WSW 13 15 7 8 - - -
20/05:00pm 11.6 8.2 5.7 67 2.7 WSW 13 15 7 8 - - -
20/04:30pm 11.6 8.1 5.3 65 2.9 WSW 13 19 7 10 - - -
20/04:00pm 12.2 9.8 4.4 59 3.5 S 6 11 3 6 - - -
20/03:30pm 11.5 7.3 5.6 67 2.7 WSW 17 19 9 10 - - -

Other Formats:

Comma delimited format used in spreadsheet applications
http://www.bom.gov.au/fwo/IDV60801/IDV60801.94871.axf

JavaScript Object Notation format (JSON) in row-major order
http://www.bom.gov.au/fwo/IDV60801/IDV60801.94871.json